sensor_id;sensor_type;location;lat;lon;timestamp;P1;durP1;ratioP1;P2;durP2;ratioP2
485;SDS011;229;48.734;9.340;2023-09-18T00:00:11;12.77;;;4.07;;
485;SDS011;229;48.734;9.340;2023-09-18T00:02:38;5.03;;;3.83;;
485;SDS011;229;48.734;9.340;2023-09-18T00:05:06;4.67;;;3.87;;
485;SDS011;229;48.734;9.340;2023-09-18T00:07:34;5.70;;;4.00;;
485;SDS011;229;48.734;9.340;2023-09-18T00:10:02;6.37;;;3.87;;
485;SDS011;229;48.734;9.340;2023-09-18T00:12:29;6.37;;;4.10;;
485;SDS011;229;48.734;9.340;2023-09-18T00:14:56;5.77;;;4.13;;
485;SDS011;229;48.734;9.340;2023-09-18T00:17:23;6.00;;;3.80;;
485;SDS011;229;48.734;9.340;2023-09-18T00:19:50;6.73;;;4.03;;
485;SDS011;229;48.734;9.340;2023-09-18T00:22:18;5.80;;;4.20;;
485;SDS011;229;48.734;9.340;2023-09-18T00:24:47;6.13;;;4.07;;
485;SDS011;229;48.734;9.340;2023-09-18T00:27:14;4.93;;;3.53;;
485;SDS011;229;48.734;9.340;2023-09-18T00:29:42;5.97;;;4.20;;
485;SDS011;229;48.734;9.340;2023-09-18T00:32:09;5.83;;;3.73;;
485;SDS011;229;48.734;9.340;2023-09-18T00:34:36;6.97;;;4.33;;
485;SDS011;229;48.734;9.340;2023-09-18T00:37:03;5.70;;;3.90;;
485;SDS011;229;48.734;9.340;2023-09-18T00:39:31;9.80;;;4.50;;
485;SDS011;229;48.734;9.340;2023-09-18T00:41:59;8.67;;;4.40;;
485;SDS011;229;48.734;9.340;2023-09-18T00:44:27;11.37;;;4.80;;
485;SDS011;229;48.734;9.340;2023-09-18T00:46:54;12.93;;;6.10;;
485;SDS011;229;48.734;9.340;2023-09-18T00:49:22;8.53;;;5.13;;
485;SDS011;229;48.734;9.340;2023-09-18T00:51:49;11.33;;;4.77;;
485;SDS011;229;48.734;9.340;2023-09-18T00:54:17;12.00;;;5.90;;
485;SDS011;229;48.734;9.340;2023-09-18T00:56:45;8.30;;;4.70;;
485;SDS011;229;48.734;9.340;2023-09-18T00:59:14;6.83;;;4.40;;
485;SDS011;229;48.734;9.340;2023-09-18T01:01:42;7.03;;;4.37;;
485;SDS011;229;48.734;9.340;2023-09-18T01:04:10;5.13;;;4.30;;
485;SDS011;229;48.734;9.340;2023-09-18T01:06:38;7.27;;;4.23;;
485;SDS011;229;48.734;9.340;2023-09-18T01:09:05;6.67;;;4.57;;
485;SDS011;229;48.734;9.340;2023-09-18T01:11:40;6.40;;;4.37;;
485;SDS011;229;48.734;9.340;2023-09-18T01:14:11;8.23;;;3.90;;
485;SDS011;229;48.734;9.340;2023-09-18T01:16:44;8.73;;;4.43;;
485;SDS011;229;48.734;9.340;2023-09-18T01:19:15;6.27;;;4.30;;
485;SDS011;229;48.734;9.340;2023-09-18T01:21:44;4.70;;;3.93;;
485;SDS011;229;48.734;9.340;2023-09-18T01:24:13;10.43;;;4.30;;
485;SDS011;229;48.734;9.340;2023-09-18T01:26:40;6.53;;;4.30;;
485;SDS011;229;48.734;9.340;2023-09-18T01:29:07;6.30;;;4.40;;
485;SDS011;229;48.734;9.340;2023-09-18T01:31:34;5.80;;;4.17;;
485;SDS011;229;48.734;9.340;2023-09-18T01:34:01;5.97;;;3.93;;
485;SDS011;229;48.734;9.340;2023-09-18T01:36:29;7.13;;;4.30;;
485;SDS011;229;48.734;9.340;2023-09-18T01:38:56;6.83;;;4.13;;
485;SDS011;229;48.734;9.340;2023-09-18T01:41:25;8.60;;;3.90;;
485;SDS011;229;48.734;9.340;2023-09-18T01:43:52;6.07;;;3.80;;
485;SDS011;229;48.734;9.340;2023-09-18T01:46:20;5.73;;;3.50;;
485;SDS011;229;48.734;9.340;2023-09-18T01:48:48;10.93;;;4.60;;
485;SDS011;229;48.734;9.340;2023-09-18T01:51:15;6.00;;;4.30;;
485;SDS011;229;48.734;9.340;2023-09-18T01:53:42;4.93;;;3.90;;
485;SDS011;229;48.734;9.340;2023-09-18T01:56:09;7.43;;;4.57;;
485;SDS011;229;48.734;9.340;2023-09-18T01:58:38;9.07;;;4.77;;
485;SDS011;229;48.734;9.340;2023-09-18T02:01:05;7.40;;;4.57;;
485;SDS011;229;48.734;9.340;2023-09-18T02:03:32;7.53;;;4.57;;
485;SDS011;229;48.734;9.340;2023-09-18T02:06:00;8.23;;;4.43;;
485;SDS011;229;48.734;9.340;2023-09-18T02:08:27;7.13;;;4.40;;
485;SDS011;229;48.734;9.340;2023-09-18T02:10:54;12.97;;;5.67;;
485;SDS011;229;48.734;9.340;2023-09-18T02:13:21;10.60;;;5.20;;
485;SDS011;229;48.734;9.340;2023-09-18T02:15:50;14.10;;;4.80;;
485;SDS011;229;48.734;9.340;2023-09-18T02:18:17;9.43;;;5.00;;
485;SDS011;229;48.734;9.340;2023-09-18T02:20:45;10.17;;;4.93;;
485;SDS011;229;48.734;9.340;2023-09-18T02:23:14;8.40;;;4.90;;
485;SDS011;229;48.734;9.340;2023-09-18T02:25:41;10.90;;;5.30;;
485;SDS011;229;48.734;9.340;2023-09-18T02:28:08;15.80;;;4.77;;
485;SDS011;229;48.734;9.340;2023-09-18T02:30:36;12.20;;;5.43;;
485;SDS011;229;48.734;9.340;2023-09-18T02:33:05;10.17;;;5.10;;
485;SDS011;229;48.734;9.340;2023-09-18T02:35:32;14.70;;;5.37;;
485;SDS011;229;48.734;9.340;2023-09-18T02:37:59;8.70;;;4.50;;
485;SDS011;229;48.734;9.340;2023-09-18T02:40:27;16.23;;;5.60;;
485;SDS011;229;48.734;9.340;2023-09-18T02:42:55;8.37;;;5.07;;
485;SDS011;229;48.734;9.340;2023-09-18T02:45:22;8.03;;;4.93;;
485;SDS011;229;48.734;9.340;2023-09-18T02:47:49;8.17;;;5.10;;
485;SDS011;229;48.734;9.340;2023-09-18T02:50:18;19.50;;;5.10;;
485;SDS011;229;48.734;9.340;2023-09-18T02:52:45;14.57;;;5.10;;
485;SDS011;229;48.734;9.340;2023-09-18T02:55:12;11.37;;;5.23;;
485;SDS011;229;48.734;9.340;2023-09-18T02:57:39;10.73;;;5.80;;
485;SDS011;229;48.734;9.340;2023-09-18T03:00:06;10.27;;;5.57;;
485;SDS011;229;48.734;9.340;2023-09-18T03:02:34;9.20;;;5.00;;
485;SDS011;229;48.734;9.340;2023-09-18T03:05:02;9.40;;;5.20;;
485;SDS011;229;48.734;9.340;2023-09-18T03:07:30;9.63;;;4.70;;
485;SDS011;229;48.734;9.340;2023-09-18T03:09:58;9.20;;;4.53;;
485;SDS011;229;48.734;9.340;2023-09-18T03:12:25;15.77;;;5.00;;
485;SDS011;229;48.734;9.340;2023-09-18T03:14:53;11.83;;;4.83;;
485;SDS011;229;48.734;9.340;2023-09-18T03:17:20;13.90;;;5.23;;
485;SDS011;229;48.734;9.340;2023-09-18T03:19:47;12.60;;;5.03;;
485;SDS011;229;48.734;9.340;2023-09-18T03:22:15;12.30;;;5.23;;
485;SDS011;229;48.734;9.340;2023-09-18T03:24:43;13.13;;;5.07;;
485;SDS011;229;48.734;9.340;2023-09-18T03:27:11;12.13;;;4.97;;
485;SDS011;229;48.734;9.340;2023-09-18T03:29:38;16.10;;;4.90;;
485;SDS011;229;48.734;9.340;2023-09-18T03:32:05;10.90;;;4.67;;
485;SDS011;229;48.734;9.340;2023-09-18T03:34:37;15.73;;;4.87;;
485;SDS011;229;48.734;9.340;2023-09-18T03:37:04;12.10;;;4.87;;
485;SDS011;229;48.734;9.340;2023-09-18T03:39:31;10.07;;;4.70;;
485;SDS011;229;48.734;9.340;2023-09-18T03:42:00;12.80;;;5.77;;
485;SDS011;229;48.734;9.340;2023-09-18T03:44:28;8.87;;;4.07;;
485;SDS011;229;48.734;9.340;2023-09-18T03:46:55;10.90;;;4.70;;
485;SDS011;229;48.734;9.340;2023-09-18T03:49:22;10.03;;;4.40;;
485;SDS011;229;48.734;9.340;2023-09-18T03:51:49;9.30;;;4.63;;
485;SDS011;229;48.734;9.340;2023-09-18T03:54:16;17.43;;;5.40;;
485;SDS011;229;48.734;9.340;2023-09-18T03:56:43;10.20;;;5.73;;
485;SDS011;229;48.734;9.340;2023-09-18T03:59:12;12.53;;;5.80;;
485;SDS011;229;48.734;9.340;2023-09-18T04:01:39;17.47;;;5.60;;
485;SDS011;229;48.734;9.340;2023-09-18T04:04:07;10.50;;;5.30;;
485;SDS011;229;48.734;9.340;2023-09-18T04:06:37;12.53;;;5.27;;
485;SDS011;229;48.734;9.340;2023-09-18T04:09:04;16.87;;;5.83;;
485;SDS011;229;48.734;9.340;2023-09-18T04:11:32;14.13;;;5.50;;
485;SDS011;229;48.734;9.340;2023-09-18T04:13:59;15.07;;;5.90;;
485;SDS011;229;48.734;9.340;2023-09-18T04:16:29;10.90;;;5.63;;
485;SDS011;229;48.734;9.340;2023-09-18T04:19:00;14.10;;;5.17;;
485;SDS011;229;48.734;9.340;2023-09-18T04:21:27;11.37;;;5.30;;
485;SDS011;229;48.734;9.340;2023-09-18T04:23:55;11.57;;;5.10;;
485;SDS011;229;48.734;9.340;2023-09-18T04:26:23;9.73;;;5.00;;
485;SDS011;229;48.734;9.340;2023-09-18T04:28:54;6.90;;;4.97;;
485;SDS011;229;48.734;9.340;2023-09-18T04:31:21;12.37;;;5.40;;
485;SDS011;229;48.734;9.340;2023-09-18T04:33:50;6.60;;;4.40;;
485;SDS011;229;48.734;9.340;2023-09-18T04:36:17;11.07;;;4.97;;
485;SDS011;229;48.734;9.340;2023-09-18T04:38:44;9.70;;;5.50;;
485;SDS011;229;48.734;9.340;2023-09-18T04:41:11;10.23;;;5.00;;
485;SDS011;229;48.734;9.340;2023-09-18T04:43:39;8.40;;;4.97;;
485;SDS011;229;48.734;9.340;2023-09-18T04:46:07;12.93;;;4.63;;
485;SDS011;229;48.734;9.340;2023-09-18T04:48:35;10.20;;;4.97;;
485;SDS011;229;48.734;9.340;2023-09-18T04:51:03;7.73;;;4.67;;
485;SDS011;229;48.734;9.340;2023-09-18T04:53:32;14.73;;;4.90;;
485;SDS011;229;48.734;9.340;2023-09-18T04:55:59;7.83;;;4.63;;
485;SDS011;229;48.734;9.340;2023-09-18T04:58:28;11.00;;;4.90;;
485;SDS011;229;48.734;9.340;2023-09-18T05:00:55;12.10;;;4.87;;
485;SDS011;229;48.734;9.340;2023-09-18T05:03:23;7.47;;;4.60;;
485;SDS011;229;48.734;9.340;2023-09-18T05:05:51;11.80;;;5.03;;
485;SDS011;229;48.734;9.340;2023-09-18T05:08:20;8.43;;;5.70;;
485;SDS011;229;48.734;9.340;2023-09-18T05:10:47;14.23;;;5.30;;
485;SDS011;229;48.734;9.340;2023-09-18T05:13:15;6.10;;;4.10;;
485;SDS011;229;48.734;9.340;2023-09-18T05:15:42;17.93;;;5.87;;
485;SDS011;229;48.734;9.340;2023-09-18T05:18:10;7.90;;;4.77;;
485;SDS011;229;48.734;9.340;2023-09-18T05:20:38;8.80;;;4.40;;
485;SDS011;229;48.734;9.340;2023-09-18T05:23:05;8.10;;;4.30;;
485;SDS011;229;48.734;9.340;2023-09-18T05:25:34;10.13;;;4.43;;
485;SDS011;229;48.734;9.340;2023-09-18T05:28:03;15.73;;;4.87;;
485;SDS011;229;48.734;9.340;2023-09-18T05:30:32;16.37;;;5.27;;
485;SDS011;229;48.734;9.340;2023-09-18T05:33:00;13.70;;;4.73;;
485;SDS011;229;48.734;9.340;2023-09-18T05:35:29;11.33;;;4.77;;
485;SDS011;229;48.734;9.340;2023-09-18T05:37:57;11.10;;;4.30;;
485;SDS011;229;48.734;9.340;2023-09-18T05:40:25;7.87;;;4.20;;
485;SDS011;229;48.734;9.340;2023-09-18T05:42:54;8.53;;;4.13;;
485;SDS011;229;48.734;9.340;2023-09-18T05:45:22;10.17;;;4.00;;
485;SDS011;229;48.734;9.340;2023-09-18T05:47:49;8.70;;;4.23;;
485;SDS011;229;48.734;9.340;2023-09-18T05:50:18;9.20;;;4.10;;
485;SDS011;229;48.734;9.340;2023-09-18T05:52:46;8.70;;;4.00;;
485;SDS011;229;48.734;9.340;2023-09-18T05:55:13;13.03;;;4.37;;
485;SDS011;229;48.734;9.340;2023-09-18T05:57:41;6.53;;;4.33;;
485;SDS011;229;48.734;9.340;2023-09-18T06:00:10;11.17;;;4.90;;
485;SDS011;229;48.734;9.340;2023-09-18T06:02:39;7.97;;;3.80;;
485;SDS011;229;48.734;9.340;2023-09-18T06:05:06;10.17;;;4.27;;
485;SDS011;229;48.734;9.340;2023-09-18T06:07:36;6.03;;;3.60;;
485;SDS011;229;48.734;9.340;2023-09-18T06:10:03;9.57;;;4.17;;
485;SDS011;229;48.734;9.340;2023-09-18T06:12:31;9.40;;;4.20;;
485;SDS011;229;48.734;9.340;2023-09-18T06:14:58;10.30;;;4.20;;
485;SDS011;229;48.734;9.340;2023-09-18T06:17:26;11.20;;;3.77;;
485;SDS011;229;48.734;9.340;2023-09-18T06:19:54;12.20;;;4.47;;
485;SDS011;229;48.734;9.340;2023-09-18T06:22:21;10.57;;;3.63;;
485;SDS011;229;48.734;9.340;2023-09-18T06:24:48;6.93;;;4.13;;
485;SDS011;229;48.734;9.340;2023-09-18T06:27:16;9.17;;;3.50;;
485;SDS011;229;48.734;9.340;2023-09-18T06:29:43;11.73;;;3.57;;
485;SDS011;229;48.734;9.340;2023-09-18T06:32:11;17.23;;;4.00;;
485;SDS011;229;48.734;9.340;2023-09-18T06:34:40;14.33;;;5.20;;
485;SDS011;229;48.734;9.340;2023-09-18T06:37:08;11.03;;;5.13;;
485;SDS011;229;48.734;9.340;2023-09-18T06:39:37;7.40;;;4.17;;
485;SDS011;229;48.734;9.340;2023-09-18T06:42:04;9.87;;;3.93;;
485;SDS011;229;48.734;9.340;2023-09-18T06:44:32;10.20;;;3.93;;
485;SDS011;229;48.734;9.340;2023-09-18T06:46:59;12.33;;;3.90;;
485;SDS011;229;48.734;9.340;2023-09-18T06:49:26;13.97;;;4.00;;
485;SDS011;229;48.734;9.340;2023-09-18T06:51:55;11.40;;;4.43;;
485;SDS011;229;48.734;9.340;2023-09-18T06:54:22;15.90;;;4.10;;
485;SDS011;229;48.734;9.340;2023-09-18T06:56:49;9.70;;;3.90;;
485;SDS011;229;48.734;9.340;2023-09-18T06:59:16;9.63;;;4.10;;
485;SDS011;229;48.734;9.340;2023-09-18T07:01:43;12.00;;;4.40;;
485;SDS011;229;48.734;9.340;2023-09-18T07:04:10;8.43;;;3.70;;
485;SDS011;229;48.734;9.340;2023-09-18T07:06:38;8.37;;;3.27;;
485;SDS011;229;48.734;9.340;2023-09-18T07:09:06;9.43;;;3.47;;
485;SDS011;229;48.734;9.340;2023-09-18T07:11:37;9.87;;;3.20;;
485;SDS011;229;48.734;9.340;2023-09-18T07:14:04;14.43;;;3.40;;
485;SDS011;229;48.734;9.340;2023-09-18T07:16:33;11.47;;;3.77;;
485;SDS011;229;48.734;9.340;2023-09-18T07:19:00;9.60;;;3.67;;
485;SDS011;229;48.734;9.340;2023-09-18T07:21:29;11.33;;;3.50;;
485;SDS011;229;48.734;9.340;2023-09-18T07:23:56;9.60;;;3.33;;
485;SDS011;229;48.734;9.340;2023-09-18T07:26:25;19.07;;;4.40;;
485;SDS011;229;48.734;9.340;2023-09-18T07:28:52;11.47;;;3.33;;
485;SDS011;229;48.734;9.340;2023-09-18T07:31:19;6.23;;;2.50;;
485;SDS011;229;48.734;9.340;2023-09-18T07:33:46;10.50;;;2.83;;
485;SDS011;229;48.734;9.340;2023-09-18T07:36:14;11.37;;;3.10;;
485;SDS011;229;48.734;9.340;2023-09-18T07:38:41;6.83;;;3.07;;
485;SDS011;229;48.734;9.340;2023-09-18T07:41:08;10.50;;;3.10;;
485;SDS011;229;48.734;9.340;2023-09-18T07:43:37;7.80;;;2.90;;
485;SDS011;229;48.734;9.340;2023-09-18T07:46:06;7.83;;;3.00;;
485;SDS011;229;48.734;9.340;2023-09-18T07:48:33;6.80;;;3.47;;
485;SDS011;229;48.734;9.340;2023-09-18T07:51:02;13.47;;;3.20;;
485;SDS011;229;48.734;9.340;2023-09-18T07:53:30;6.80;;;2.40;;
485;SDS011;229;48.734;9.340;2023-09-18T07:55:58;8.50;;;3.00;;
485;SDS011;229;48.734;9.340;2023-09-18T07:58:26;8.90;;;2.10;;
485;SDS011;229;48.734;9.340;2023-09-18T08:00:55;11.90;;;3.20;;
485;SDS011;229;48.734;9.340;2023-09-18T08:03:23;14.67;;;3.03;;
485;SDS011;229;48.734;9.340;2023-09-18T08:05:51;4.97;;;2.20;;
485;SDS011;229;48.734;9.340;2023-09-18T08:08:19;5.80;;;2.40;;
485;SDS011;229;48.734;9.340;2023-09-18T08:10:47;19.00;;;2.80;;
485;SDS011;229;48.734;9.340;2023-09-18T08:13:14;13.00;;;3.43;;
485;SDS011;229;48.734;9.340;2023-09-18T08:15:41;6.87;;;2.70;;
485;SDS011;229;48.734;9.340;2023-09-18T08:18:10;9.57;;;2.50;;
485;SDS011;229;48.734;9.340;2023-09-18T08:20:39;5.17;;;2.00;;
485;SDS011;229;48.734;9.340;2023-09-18T08:23:07;5.90;;;2.40;;
485;SDS011;229;48.734;9.340;2023-09-18T08:25:34;4.87;;;2.27;;
485;SDS011;229;48.734;9.340;2023-09-18T08:28:02;5.53;;;2.40;;
485;SDS011;229;48.734;9.340;2023-09-18T08:30:29;4.40;;;2.30;;
485;SDS011;229;48.734;9.340;2023-09-18T08:32:57;6.00;;;2.73;;
485;SDS011;229;48.734;9.340;2023-09-18T08:35:25;3.67;;;2.13;;
485;SDS011;229;48.734;9.340;2023-09-18T08:37:54;3.73;;;1.90;;
485;SDS011;229;48.734;9.340;2023-09-18T08:40:22;8.13;;;2.60;;
485;SDS011;229;48.734;9.340;2023-09-18T08:42:51;9.60;;;2.40;;
485;SDS011;229;48.734;9.340;2023-09-18T08:45:23;7.57;;;1.70;;
485;SDS011;229;48.734;9.340;2023-09-18T08:47:50;7.63;;;2.47;;
485;SDS011;229;48.734;9.340;2023-09-18T08:50:18;6.23;;;2.40;;
485;SDS011;229;48.734;9.340;2023-09-18T08:52:47;4.20;;;2.13;;
485;SDS011;229;48.734;9.340;2023-09-18T08:55:17;3.23;;;1.93;;
485;SDS011;229;48.734;9.340;2023-09-18T08:57:44;6.90;;;2.50;;
485;SDS011;229;48.734;9.340;2023-09-18T09:00:13;8.13;;;2.37;;
485;SDS011;229;48.734;9.340;2023-09-18T09:02:43;6.20;;;2.30;;
485;SDS011;229;48.734;9.340;2023-09-18T09:05:10;5.93;;;2.53;;
485;SDS011;229;48.734;9.340;2023-09-18T09:07:37;4.03;;;2.23;;
485;SDS011;229;48.734;9.340;2023-09-18T09:10:06;2.70;;;1.77;;
485;SDS011;229;48.734;9.340;2023-09-18T09:12:46;10.20;;;2.27;;
485;SDS011;229;48.734;9.340;2023-09-18T09:15:13;4.07;;;2.00;;
485;SDS011;229;48.734;9.340;2023-09-18T09:17:41;4.30;;;1.87;;
485;SDS011;229;48.734;9.340;2023-09-18T09:20:09;6.17;;;2.20;;
485;SDS011;229;48.734;9.340;2023-09-18T09:22:37;7.13;;;1.83;;
485;SDS011;229;48.734;9.340;2023-09-18T09:25:10;8.83;;;2.30;;
485;SDS011;229;48.734;9.340;2023-09-18T09:27:48;5.90;;;2.30;;
485;SDS011;229;48.734;9.340;2023-09-18T09:30:18;4.47;;;1.93;;
485;SDS011;229;48.734;9.340;2023-09-18T09:32:47;7.33;;;2.07;;
485;SDS011;229;48.734;9.340;2023-09-18T09:35:18;3.63;;;1.87;;
485;SDS011;229;48.734;9.340;2023-09-18T09:37:46;3.97;;;1.70;;
485;SDS011;229;48.734;9.340;2023-09-18T09:40:17;5.63;;;1.77;;
485;SDS011;229;48.734;9.340;2023-09-18T09:42:45;4.00;;;1.77;;
485;SDS011;229;48.734;9.340;2023-09-18T09:45:13;4.50;;;1.80;;
485;SDS011;229;48.734;9.340;2023-09-18T09:47:41;4.90;;;2.13;;
485;SDS011;229;48.734;9.340;2023-09-18T09:50:15;3.10;;;2.03;;
485;SDS011;229;48.734;9.340;2023-09-18T09:52:44;4.00;;;1.70;;
485;SDS011;229;48.734;9.340;2023-09-18T09:55:22;7.03;;;2.40;;
485;SDS011;229;48.734;9.340;2023-09-18T09:57:50;3.13;;;1.70;;
485;SDS011;229;48.734;9.340;2023-09-18T10:00:18;3.10;;;1.53;;
485;SDS011;229;48.734;9.340;2023-09-18T10:02:53;6.87;;;2.10;;
485;SDS011;229;48.734;9.340;2023-09-18T10:05:21;3.63;;;1.57;;
485;SDS011;229;48.734;9.340;2023-09-18T10:07:50;4.80;;;1.87;;
485;SDS011;229;48.734;9.340;2023-09-18T10:10:18;6.33;;;2.27;;
485;SDS011;229;48.734;9.340;2023-09-18T10:12:47;5.87;;;2.00;;
485;SDS011;229;48.734;9.340;2023-09-18T10:15:14;7.93;;;1.80;;
485;SDS011;229;48.734;9.340;2023-09-18T10:17:43;6.50;;;1.87;;
485;SDS011;229;48.734;9.340;2023-09-18T10:20:12;9.47;;;2.40;;
485;SDS011;229;48.734;9.340;2023-09-18T10:22:45;4.27;;;2.03;;
485;SDS011;229;48.734;9.340;2023-09-18T10:25:14;7.80;;;2.17;;
485;SDS011;229;48.734;9.340;2023-09-18T10:27:44;5.60;;;2.00;;
485;SDS011;229;48.734;9.340;2023-09-18T10:30:15;7.10;;;2.03;;
485;SDS011;229;48.734;9.340;2023-09-18T10:32:44;4.30;;;1.83;;
485;SDS011;229;48.734;9.340;2023-09-18T10:35:13;6.87;;;2.90;;
485;SDS011;229;48.734;9.340;2023-09-18T10:37:41;3.80;;;1.60;;
485;SDS011;229;48.734;9.340;2023-09-18T10:40:08;4.97;;;2.20;;
485;SDS011;229;48.734;9.340;2023-09-18T10:42:37;7.77;;;3.40;;
485;SDS011;229;48.734;9.340;2023-09-18T10:45:05;5.60;;;2.80;;
485;SDS011;229;48.734;9.340;2023-09-18T10:47:37;6.10;;;2.57;;
485;SDS011;229;48.734;9.340;2023-09-18T10:50:05;5.20;;;2.40;;
485;SDS011;229;48.734;9.340;2023-09-18T10:52:34;5.63;;;3.03;;
485;SDS011;229;48.734;9.340;2023-09-18T10:55:01;4.10;;;2.20;;
485;SDS011;229;48.734;9.340;2023-09-18T10:57:32;6.13;;;2.10;;
485;SDS011;229;48.734;9.340;2023-09-18T11:00:00;6.93;;;2.00;;
485;SDS011;229;48.734;9.340;2023-09-18T11:02:40;4.53;;;1.90;;
485;SDS011;229;48.734;9.340;2023-09-18T11:05:07;5.03;;;1.90;;
485;SDS011;229;48.734;9.340;2023-09-18T11:07:34;6.30;;;1.90;;
485;SDS011;229;48.734;9.340;2023-09-18T11:12:44;5.00;;;1.80;;
485;SDS011;229;48.734;9.340;2023-09-18T11:15:24;2.87;;;1.77;;
485;SDS011;229;48.734;9.340;2023-09-18T11:17:59;2.87;;;1.60;;
485;SDS011;229;48.734;9.340;2023-09-18T11:20:28;3.97;;;1.60;;
485;SDS011;229;48.734;9.340;2023-09-18T11:22:56;4.93;;;2.10;;
485;SDS011;229;48.734;9.340;2023-09-18T11:28:13;4.30;;;2.70;;
485;SDS011;229;48.734;9.340;2023-09-18T11:30:48;7.00;;;2.67;;
485;SDS011;229;48.734;9.340;2023-09-18T11:33:16;6.70;;;2.27;;
485;SDS011;229;48.734;9.340;2023-09-18T11:35:56;3.23;;;2.20;;
485;SDS011;229;48.734;9.340;2023-09-18T11:38:23;5.93;;;2.43;;
485;SDS011;229;48.734;9.340;2023-09-18T11:40:51;7.40;;;2.73;;
485;SDS011;229;48.734;9.340;2023-09-18T11:43:22;3.87;;;2.23;;
485;SDS011;229;48.734;9.340;2023-09-18T11:45:55;5.80;;;2.30;;
485;SDS011;229;48.734;9.340;2023-09-18T11:48:24;2.70;;;1.80;;
485;SDS011;229;48.734;9.340;2023-09-18T11:50:53;5.80;;;2.10;;
485;SDS011;229;48.734;9.340;2023-09-18T11:53:20;4.90;;;1.87;;
485;SDS011;229;48.734;9.340;2023-09-18T11:55:48;6.57;;;2.37;;
485;SDS011;229;48.734;9.340;2023-09-18T11:58:15;4.00;;;1.93;;
485;SDS011;229;48.734;9.340;2023-09-18T12:00:45;6.00;;;1.80;;
485;SDS011;229;48.734;9.340;2023-09-18T12:03:18;4.53;;;2.23;;
485;SDS011;229;48.734;9.340;2023-09-18T12:05:55;5.93;;;1.97;;
485;SDS011;229;48.734;9.340;2023-09-18T12:08:23;4.23;;;1.70;;
485;SDS011;229;48.734;9.340;2023-09-18T12:10:52;3.93;;;1.50;;
485;SDS011;229;48.734;9.340;2023-09-18T12:13:19;4.03;;;1.70;;
485;SDS011;229;48.734;9.340;2023-09-18T12:15:47;5.53;;;1.70;;
485;SDS011;229;48.734;9.340;2023-09-18T12:18:14;6.13;;;1.70;;
485;SDS011;229;48.734;9.340;2023-09-18T12:20:46;4.33;;;1.60;;
485;SDS011;229;48.734;9.340;2023-09-18T12:23:15;4.43;;;1.80;;
485;SDS011;229;48.734;9.340;2023-09-18T12:25:44;2.87;;;1.80;;
485;SDS011;229;48.734;9.340;2023-09-18T12:28:12;4.80;;;2.40;;
485;SDS011;229;48.734;9.340;2023-09-18T12:30:41;4.07;;;1.83;;
485;SDS011;229;48.734;9.340;2023-09-18T12:33:08;5.87;;;1.87;;
485;SDS011;229;48.734;9.340;2023-09-18T12:35:36;7.03;;;1.70;;
485;SDS011;229;48.734;9.340;2023-09-18T12:38:12;7.73;;;1.70;;
485;SDS011;229;48.734;9.340;2023-09-18T12:40:42;4.63;;;1.83;;
485;SDS011;229;48.734;9.340;2023-09-18T12:43:11;6.17;;;2.17;;
485;SDS011;229;48.734;9.340;2023-09-18T12:45:39;3.30;;;1.70;;
485;SDS011;229;48.734;9.340;2023-09-18T12:48:07;4.07;;;1.77;;
485;SDS011;229;48.734;9.340;2023-09-18T12:50:35;4.43;;;1.90;;
485;SDS011;229;48.734;9.340;2023-09-18T12:53:12;4.97;;;1.77;;
485;SDS011;229;48.734;9.340;2023-09-18T12:55:41;4.03;;;1.70;;
485;SDS011;229;48.734;9.340;2023-09-18T12:58:10;5.43;;;1.53;;
485;SDS011;229;48.734;9.340;2023-09-18T13:00:43;5.50;;;1.80;;
485;SDS011;229;48.734;9.340;2023-09-18T13:03:12;3.97;;;1.90;;
485;SDS011;229;48.734;9.340;2023-09-18T13:05:39;3.57;;;1.47;;
485;SDS011;229;48.734;9.340;2023-09-18T13:08:06;4.83;;;1.93;;
485;SDS011;229;48.734;9.340;2023-09-18T13:10:47;6.20;;;1.70;;
485;SDS011;229;48.734;9.340;2023-09-18T13:13:16;6.47;;;2.00;;
485;SDS011;229;48.734;9.340;2023-09-18T13:15:43;3.93;;;2.13;;
485;SDS011;229;48.734;9.340;2023-09-18T13:18:13;5.77;;;1.87;;
485;SDS011;229;48.734;9.340;2023-09-18T13:20:40;6.43;;;1.93;;
485;SDS011;229;48.734;9.340;2023-09-18T13:23:07;3.70;;;1.47;;
485;SDS011;229;48.734;9.340;2023-09-18T13:25:35;2.47;;;1.60;;
485;SDS011;229;48.734;9.340;2023-09-18T13:28:05;3.83;;;1.40;;
485;SDS011;229;48.734;9.340;2023-09-18T13:30:32;5.43;;;2.13;;
485;SDS011;229;48.734;9.340;2023-09-18T13:33:04;6.00;;;2.13;;
485;SDS011;229;48.734;9.340;2023-09-18T13:35:32;4.07;;;1.50;;
485;SDS011;229;48.734;9.340;2023-09-18T13:38:00;6.03;;;2.10;;
485;SDS011;229;48.734;9.340;2023-09-18T13:40:27;5.30;;;1.73;;
485;SDS011;229;48.734;9.340;2023-09-18T13:42:54;7.20;;;1.90;;
485;SDS011;229;48.734;9.340;2023-09-18T13:45:23;4.40;;;1.97;;
485;SDS011;229;48.734;9.340;2023-09-18T13:47:51;4.23;;;1.67;;
485;SDS011;229;48.734;9.340;2023-09-18T13:50:19;3.53;;;2.00;;
485;SDS011;229;48.734;9.340;2023-09-18T13:52:46;3.57;;;1.43;;
485;SDS011;229;48.734;9.340;2023-09-18T13:55:13;5.70;;;1.90;;
485;SDS011;229;48.734;9.340;2023-09-18T13:57:41;5.33;;;1.73;;
485;SDS011;229;48.734;9.340;2023-09-18T14:00:08;3.27;;;1.80;;
485;SDS011;229;48.734;9.340;2023-09-18T14:02:38;10.07;;;1.93;;
485;SDS011;229;48.734;9.340;2023-09-18T14:05:06;2.87;;;1.73;;
485;SDS011;229;48.734;9.340;2023-09-18T14:07:33;5.53;;;2.60;;
485;SDS011;229;48.734;9.340;2023-09-18T14:10:00;3.67;;;2.23;;
485;SDS011;229;48.734;9.340;2023-09-18T14:12:29;5.17;;;1.87;;
485;SDS011;229;48.734;9.340;2023-09-18T14:14:57;6.20;;;2.00;;
485;SDS011;229;48.734;9.340;2023-09-18T14:17:24;2.30;;;1.70;;
485;SDS011;229;48.734;9.340;2023-09-18T14:19:53;4.37;;;2.07;;
485;SDS011;229;48.734;9.340;2023-09-18T14:22:20;5.83;;;2.30;;
485;SDS011;229;48.734;9.340;2023-09-18T14:24:48;3.43;;;1.93;;
485;SDS011;229;48.734;9.340;2023-09-18T14:27:15;4.20;;;2.10;;
485;SDS011;229;48.734;9.340;2023-09-18T14:29:42;5.07;;;1.93;;
485;SDS011;229;48.734;9.340;2023-09-18T14:32:10;2.63;;;2.10;;
485;SDS011;229;48.734;9.340;2023-09-18T14:34:37;2.77;;;1.70;;
485;SDS011;229;48.734;9.340;2023-09-18T14:37:05;3.20;;;1.93;;
485;SDS011;229;48.734;9.340;2023-09-18T14:39:32;3.40;;;2.17;;
485;SDS011;229;48.734;9.340;2023-09-18T14:42:00;2.33;;;1.80;;
485;SDS011;229;48.734;9.340;2023-09-18T14:44:27;3.53;;;1.70;;
485;SDS011;229;48.734;9.340;2023-09-18T14:46:55;3.73;;;1.93;;
485;SDS011;229;48.734;9.340;2023-09-18T14:49:22;3.70;;;2.00;;
485;SDS011;229;48.734;9.340;2023-09-18T14:51:49;3.73;;;2.27;;
485;SDS011;229;48.734;9.340;2023-09-18T14:54:20;4.77;;;2.70;;
485;SDS011;229;48.734;9.340;2023-09-18T14:56:47;2.73;;;1.90;;
485;SDS011;229;48.734;9.340;2023-09-18T14:59:14;3.13;;;2.00;;
485;SDS011;229;48.734;9.340;2023-09-18T15:01:41;3.20;;;1.73;;
485;SDS011;229;48.734;9.340;2023-09-18T15:04:09;4.67;;;2.27;;
485;SDS011;229;48.734;9.340;2023-09-18T15:06:36;3.23;;;2.23;;
485;SDS011;229;48.734;9.340;2023-09-18T15:09:03;3.37;;;1.80;;
485;SDS011;229;48.734;9.340;2023-09-18T15:11:33;4.00;;;1.90;;
485;SDS011;229;48.734;9.340;2023-09-18T15:14:01;6.50;;;2.50;;
485;SDS011;229;48.734;9.340;2023-09-18T15:16:28;4.70;;;2.20;;
485;SDS011;229;48.734;9.340;2023-09-18T15:18:55;4.33;;;2.30;;
485;SDS011;229;48.734;9.340;2023-09-18T15:21:25;3.47;;;2.00;;
485;SDS011;229;48.734;9.340;2023-09-18T15:23:53;3.20;;;2.10;;
485;SDS011;229;48.734;9.340;2023-09-18T15:26:20;7.47;;;2.37;;
485;SDS011;229;48.734;9.340;2023-09-18T15:28:49;4.87;;;2.10;;
485;SDS011;229;48.734;9.340;2023-09-18T15:31:16;3.87;;;2.03;;
485;SDS011;229;48.734;9.340;2023-09-18T15:33:43;4.37;;;1.70;;
485;SDS011;229;48.734;9.340;2023-09-18T15:36:11;2.33;;;2.10;;
485;SDS011;229;48.734;9.340;2023-09-18T15:38:39;4.80;;;2.40;;
485;SDS011;229;48.734;9.340;2023-09-18T15:41:06;3.77;;;2.03;;
485;SDS011;229;48.734;9.340;2023-09-18T15:43:34;5.53;;;2.20;;
485;SDS011;229;48.734;9.340;2023-09-18T15:46:03;2.27;;;1.80;;
485;SDS011;229;48.734;9.340;2023-09-18T15:48:30;4.57;;;2.17;;
485;SDS011;229;48.734;9.340;2023-09-18T15:50:57;4.17;;;2.00;;
485;SDS011;229;48.734;9.340;2023-09-18T15:53:24;3.50;;;2.20;;